Terminal Aerodrome Forecast
Issued by NWS

Current Version | Previous Version | Graphics & Text | Print | Product List | Glossary On
Versions: 1 2 3 4 5 6 7 8 9 10 11 12 13 14 15 16 17 18 19 20 21
000
FTUS41 KILN 301700
TAFLCK
TAF
KLCK 301730Z 3018/0118 22010KT P6SM VCTS BKN040CB
      TEMPO 3018/3022 24010G20KT 3SM TSRA BR OVC025CB
     FM010100 25006KT P6SM SCT030
     FM010900 26005KT 5SM BR SKC
      TEMPO 0109/0113 2SM BR FEW004
     FM011300 29007KT P6SM SCT035=

USA.gov is the U.S. government's official web portal to all federal, state and local government web resources and services.